createdAt,value
2018-08-10T00:01:46.372Z,54.80
2018-08-10T00:04:14.156Z,54.90
2018-08-10T00:06:42.057Z,55.60
2018-08-10T00:09:10.982Z,55.70
2018-08-10T00:11:39.546Z,55.40
2018-08-10T00:14:07.509Z,55.50
2018-08-10T00:16:35.582Z,56.10
2018-08-10T00:19:03.807Z,55.70
2018-08-10T00:21:32.078Z,55.40
2018-08-10T00:24:00.378Z,55.90
2018-08-10T00:26:28.715Z,56.20
2018-08-10T00:28:56.997Z,55.80
2018-08-10T00:31:25.683Z,56.00
2018-08-10T00:33:53.623Z,56.40
2018-08-10T00:36:21.573Z,56.00
2018-08-10T00:38:49.630Z,56.00
2018-08-10T00:41:17.565Z,55.00
2018-08-10T00:43:45.278Z,54.90
2018-08-10T00:46:13.122Z,54.70
2018-08-10T00:48:41.151Z,54.40
2018-08-10T00:51:09.242Z,54.60
2018-08-10T00:53:37.168Z,54.20
2018-08-10T00:56:05.284Z,54.10
2018-08-10T00:58:33.234Z,53.40
2018-08-10T01:01:01.338Z,53.70
2018-08-10T01:03:29.765Z,54.50
2018-08-10T01:05:57.913Z,54.20
2018-08-10T01:08:26.195Z,53.80
2018-08-10T01:10:54.276Z,53.60
2018-08-10T01:13:22.344Z,54.90
2018-08-10T01:15:50.457Z,54.00
2018-08-10T01:18:18.432Z,53.70
2018-08-10T01:20:46.229Z,53.60
2018-08-10T01:23:14.015Z,53.70
2018-08-10T01:25:41.770Z,54.50
2018-08-10T01:28:09.470Z,54.10
2018-08-10T01:30:37.234Z,53.60
2018-08-10T01:33:05.215Z,54.40
2018-08-10T01:35:33.294Z,54.50
2018-08-10T01:38:02.327Z,54.00
2018-08-10T01:40:30.612Z,53.80
2018-08-10T01:42:59.044Z,54.10
2018-08-10T01:45:27.446Z,54.00
2018-08-10T01:47:55.618Z,53.80
2018-08-10T01:50:23.529Z,53.80
2018-08-10T01:52:51.335Z,54.40
2018-08-10T01:55:19.178Z,54.60
2018-08-10T01:57:47.110Z,54.10
2018-08-10T02:00:14.935Z,53.90
2018-08-10T02:02:42.867Z,53.30
2018-08-10T02:05:12.496Z,53.40
2018-08-10T02:07:40.874Z,53.80
2018-08-10T02:10:10.824Z,54.10
2018-08-10T02:12:39.260Z,53.70
2018-08-10T02:15:09.392Z,53.90
2018-08-10T02:17:37.768Z,54.20
2018-08-10T02:20:07.155Z,54.40
2018-08-10T02:22:35.051Z,54.40
2018-08-10T02:25:03.120Z,55.20
2018-08-10T02:27:31.157Z,55.60
2018-08-10T02:29:59.333Z,56.20
2018-08-10T02:32:27.513Z,55.70
2018-08-10T02:34:55.615Z,55.80
2018-08-10T02:37:23.384Z,56.40
2018-08-10T02:39:51.114Z,56.40
2018-08-10T02:42:18.962Z,56.70
2018-08-10T02:44:46.890Z,56.50
2018-08-10T02:47:19.435Z,56.80
2018-08-10T02:49:47.498Z,57.10
2018-08-10T02:52:15.405Z,57.20
2018-08-10T02:54:43.378Z,57.20
2018-08-10T02:57:11.232Z,56.80
2018-08-10T02:59:39.098Z,57.20
2018-08-10T03:02:07.069Z,56.50
2018-08-10T03:04:35.010Z,56.60
2018-08-10T03:07:03.077Z,56.00
2018-08-10T03:09:31.045Z,56.20
2018-08-10T03:11:59.359Z,56.20
2018-08-10T03:14:27.325Z,56.50
2018-08-10T03:16:55.386Z,56.50
2018-08-10T03:19:23.333Z,56.90
2018-08-10T03:21:51.178Z,56.60
2018-08-10T03:24:18.942Z,56.40
2018-08-10T03:26:46.720Z,55.80
2018-08-10T03:29:14.592Z,57.10
2018-08-10T03:31:42.466Z,55.70
2018-08-10T03:34:10.372Z,57.10
2018-08-10T03:36:38.115Z,56.60
2018-08-10T03:39:08.734Z,56.90
2018-08-10T03:41:37.054Z,56.70
2018-08-10T03:44:04.962Z,57.10
2018-08-10T03:46:32.958Z,57.30
2018-08-10T03:49:00.860Z,58.80
2018-08-10T03:51:29.118Z,59.10
2018-08-10T03:53:57.468Z,60.50
2018-08-10T03:56:25.429Z,60.90
2018-08-10T03:58:53.356Z,61.30
2018-08-10T04:01:21.172Z,61.90
2018-08-10T04:03:49.308Z,62.80
2018-08-10T04:06:17.163Z,62.70
2018-08-10T04:08:45.002Z,62.60
2018-08-10T04:11:12.826Z,65.10
2018-08-10T04:13:40.681Z,67.50
2018-08-10T04:16:08.769Z,66.10
2018-08-10T04:18:36.630Z,67.10
2018-08-10T04:21:04.630Z,67.70
2018-08-10T04:23:32.576Z,67.40
2018-08-10T04:26:01.096Z,67.00
2018-08-10T04:28:29.517Z,66.30
2018-08-10T04:30:57.915Z,66.00
2018-08-10T04:33:26.391Z,66.20
2018-08-10T04:35:54.939Z,66.70
2018-08-10T04:38:22.832Z,66.50
2018-08-10T04:40:50.758Z,66.90
2018-08-10T04:43:18.610Z,67.40
2018-08-10T04:45:46.487Z,66.80
2018-08-10T04:48:14.341Z,65.40
2018-08-10T04:50:42.077Z,65.80
2018-08-10T04:53:09.918Z,64.80
2018-08-10T04:55:37.804Z,65.00
2018-08-10T04:58:05.765Z,64.00
2018-08-10T05:00:33.868Z,63.60
2018-08-10T05:03:01.808Z,63.70
2018-08-10T05:05:29.857Z,62.80
2018-08-10T05:07:58.106Z,61.70
2018-08-10T05:10:26.336Z,61.10
2018-08-10T05:12:54.374Z,61.70
2018-08-10T05:15:22.322Z,62.00
2018-08-10T05:17:50.110Z,60.90
2018-08-10T05:20:17.908Z,60.20
2018-08-10T05:22:45.728Z,60.10
2018-08-10T05:25:13.598Z,59.80
2018-08-10T05:27:41.381Z,60.00
2018-08-10T05:30:10.350Z,60.30
2018-08-10T05:32:38.213Z,60.00
2018-08-10T05:35:07.030Z,58.30
2018-08-10T05:37:34.977Z,58.30
2018-08-10T05:40:03.104Z,57.30
2018-08-10T05:42:31.500Z,57.30
2018-08-10T05:44:59.655Z,56.70
2018-08-10T05:47:27.676Z,55.90
2018-08-10T05:49:55.938Z,55.60
2018-08-10T05:52:23.801Z,55.90
2018-08-10T05:54:51.659Z,55.30
2018-08-10T05:57:19.691Z,55.70
2018-08-10T05:59:47.770Z,55.60
2018-08-10T06:02:15.610Z,56.00
2018-08-10T06:04:43.337Z,55.70
2018-08-10T06:07:11.188Z,55.30
2018-08-10T06:09:38.917Z,55.60
2018-08-10T06:12:06.902Z,55.70
2018-08-10T06:14:34.755Z,55.60
2018-08-10T06:17:02.827Z,55.70
2018-08-10T06:19:30.949Z,54.70
2018-08-10T06:21:59.122Z,55.50
2018-08-10T06:24:27.174Z,55.70
2018-08-10T06:26:55.089Z,55.40
2018-08-10T06:29:22.958Z,55.30
2018-08-10T06:31:50.734Z,55.40
2018-08-10T06:34:18.544Z,55.70
2018-08-10T06:36:46.429Z,55.70
2018-08-10T06:39:14.315Z,55.20
2018-08-10T06:41:42.324Z,55.20
2018-08-10T06:44:10.114Z,55.60
2018-08-10T06:46:38.264Z,54.50
2018-08-10T06:49:06.384Z,53.90
2018-08-10T06:51:34.296Z,54.00
2018-08-10T06:54:02.426Z,54.40
2018-08-10T06:56:30.485Z,54.80
2018-08-10T06:58:58.994Z,54.70
2018-08-10T07:01:27.074Z,55.50
2018-08-10T07:03:55.514Z,54.90
2018-08-10T07:06:23.313Z,54.10
2018-08-10T07:08:51.133Z,54.00
2018-08-10T07:11:19.003Z,54.40
2018-08-10T07:13:47.000Z,54.40
2018-08-10T07:16:15.008Z,54.30
2018-08-10T07:18:43.129Z,53.50
2018-08-10T07:21:11.045Z,54.30
2018-08-10T07:23:38.901Z,54.40
2018-08-10T07:26:06.873Z,54.70
2018-08-10T07:28:35.056Z,54.50
2018-08-10T07:31:03.485Z,54.00
2018-08-10T07:33:32.447Z,54.10
2018-08-10T07:36:01.280Z,53.90
2018-08-10T07:38:30.574Z,54.40
2018-08-10T07:40:59.741Z,54.00
2018-08-10T07:43:29.298Z,53.00
2018-08-10T07:46:00.172Z,51.50
2018-08-10T07:48:29.723Z,50.90
2018-08-10T07:50:59.760Z,49.90
2018-08-10T07:53:30.111Z,49.30
2018-08-10T07:56:00.126Z,49.70
2018-08-10T07:58:30.209Z,49.00
2018-08-10T08:00:59.078Z,47.90
2018-08-10T08:03:29.046Z,46.70
2018-08-10T08:06:00.429Z,45.80
2018-08-10T08:08:29.837Z,45.40
2018-08-10T08:11:01.199Z,45.60
2018-08-10T08:13:32.179Z,46.30
2018-08-10T08:16:02.315Z,46.40
2018-08-10T08:18:30.971Z,46.00
2018-08-10T08:21:05.376Z,46.50
2018-08-10T08:23:33.499Z,46.30
2018-08-10T08:26:02.582Z,46.00
2018-08-10T08:28:32.404Z,46.40
2018-08-10T08:31:01.778Z,46.60
2018-08-10T08:33:30.138Z,46.90
2018-08-10T08:36:00.705Z,47.10
2018-08-10T08:38:39.689Z,46.60
2018-08-10T08:41:08.801Z,46.10
2018-08-10T08:45:56.185Z,46.20
2018-08-10T08:48:24.826Z,45.10
2018-08-10T08:50:54.567Z,44.60
2018-08-10T08:53:22.554Z,44.60
2018-08-10T08:55:53.529Z,44.80
2018-08-10T08:58:21.914Z,45.50
2018-08-10T09:00:49.757Z,45.40
2018-08-10T09:03:29.571Z,45.50
2018-08-10T09:05:58.237Z,45.40
2018-08-10T09:08:26.326Z,44.70
2018-08-10T09:10:55.879Z,44.60
2018-08-10T09:13:24.746Z,43.90
2018-08-10T09:15:53.018Z,43.50
2018-08-10T09:18:20.885Z,44.30
2018-08-10T09:20:48.936Z,43.50
2018-08-10T09:23:27.557Z,43.10
2018-08-10T09:25:55.585Z,47.20
2018-08-10T09:28:23.446Z,42.80
2018-08-10T09:30:51.292Z,43.90
2018-08-10T09:33:19.237Z,43.60
2018-08-10T09:35:47.046Z,41.80
2018-08-10T09:38:14.902Z,42.70
2018-08-10T09:40:42.736Z,41.30
2018-08-10T09:43:10.588Z,42.90
2018-08-10T09:45:38.378Z,40.10
2018-08-10T09:48:06.378Z,39.00
2018-08-10T09:50:34.490Z,39.30
2018-08-10T09:53:04.148Z,38.20
2018-08-10T09:55:34.195Z,38.20
2018-08-10T09:58:11.466Z,38.90
2018-08-10T10:00:44.924Z,38.10
2018-08-10T10:03:17.463Z,40.00
2018-08-10T10:05:46.195Z,38.70
2018-08-10T10:08:14.627Z,39.50
2018-08-10T10:10:42.663Z,38.40
2018-08-10T10:13:10.864Z,38.60
2018-08-10T10:15:39.036Z,38.60
2018-08-10T10:18:14.139Z,39.50
2018-08-10T10:20:42.532Z,39.80
2018-08-10T10:23:10.642Z,40.00
2018-08-10T10:25:38.645Z,40.40
2018-08-10T10:28:06.894Z,40.00
2018-08-10T10:30:34.964Z,41.30
2018-08-10T10:33:03.358Z,40.10
2018-08-10T10:35:32.042Z,41.40
2018-08-10T10:38:01.789Z,41.10
2018-08-10T10:40:31.363Z,41.70
2018-08-10T10:43:00.095Z,40.40
2018-08-10T10:45:29.290Z,40.30
2018-08-10T10:47:58.336Z,39.60
2018-08-10T10:50:29.936Z,39.30
2018-08-10T10:53:00.401Z,40.40
2018-08-10T10:55:29.971Z,39.90
2018-08-10T10:57:57.937Z,40.20
2018-08-10T11:00:25.986Z,39.80
2018-08-10T11:02:54.070Z,39.90
2018-08-10T11:05:26.227Z,40.50
2018-08-10T11:07:55.691Z,38.80
2018-08-10T11:10:23.490Z,39.00
2018-08-10T11:12:51.345Z,38.20
2018-08-10T11:15:19.133Z,38.80
2018-08-10T11:17:46.877Z,38.00
2018-08-10T11:20:14.872Z,37.60
2018-08-10T11:22:42.808Z,37.70
2018-08-10T11:25:12.080Z,38.00
2018-08-10T11:27:40.578Z,38.40
2018-08-10T11:30:09.095Z,37.80
2018-08-10T11:32:36.947Z,38.10
2018-08-10T11:35:05.381Z,38.40
2018-08-10T11:37:33.465Z,37.80
2018-08-10T11:40:01.629Z,36.60
2018-08-10T11:42:29.707Z,37.90
2018-08-10T11:44:58.939Z,37.90
2018-08-10T11:47:32.583Z,37.80
2018-08-10T11:50:00.673Z,37.20
2018-08-10T11:52:29.364Z,36.60
2018-08-10T11:54:57.716Z,37.90
2018-08-10T11:57:26.218Z,36.70
2018-08-10T11:59:54.116Z,39.70
2018-08-10T12:02:21.875Z,35.90
2018-08-10T12:04:49.644Z,38.00
2018-08-10T12:07:17.525Z,36.00
2018-08-10T12:09:45.391Z,35.30
2018-08-10T12:12:13.456Z,35.70
2018-08-10T12:14:41.381Z,34.50
2018-08-10T12:17:09.428Z,35.10
2018-08-10T12:19:37.256Z,33.80
2018-08-10T12:22:05.222Z,33.80
2018-08-10T12:24:33.319Z,34.30
2018-08-10T12:27:01.337Z,36.60
2018-08-10T12:29:30.279Z,36.30
2018-08-10T12:31:58.936Z,35.70
2018-08-10T12:34:28.995Z,36.00
2018-08-10T12:36:58.414Z,34.70
2018-08-10T12:40:08.012Z,34.40
2018-08-10T12:42:36.887Z,34.20
2018-08-10T12:45:04.744Z,33.50
2018-08-10T12:47:32.714Z,33.80
2018-08-10T12:50:00.682Z,34.20
2018-08-10T12:52:35.985Z,33.90
2018-08-10T12:55:04.038Z,35.10
2018-08-10T12:57:36.897Z,33.30
2018-08-10T13:00:06.821Z,33.00
2018-08-10T13:02:34.641Z,33.40
2018-08-10T13:05:02.314Z,32.80
2018-08-10T13:07:30.165Z,34.00
2018-08-10T13:09:58.078Z,33.40
2018-08-10T13:12:25.931Z,32.90
2018-08-10T13:14:53.830Z,33.10
2018-08-10T13:17:21.410Z,32.00
2018-08-10T13:19:48.879Z,33.00
2018-08-10T13:22:16.432Z,32.50
2018-08-10T13:24:44.164Z,32.00
2018-08-10T13:27:11.788Z,30.90
2018-08-10T13:29:39.269Z,30.90
2018-08-10T13:32:07.236Z,31.00
2018-08-10T13:34:35.911Z,30.90
2018-08-10T13:37:03.894Z,30.10
2018-08-10T13:39:31.752Z,31.10
2018-08-10T13:41:59.793Z,31.00
2018-08-10T13:44:27.767Z,30.50
2018-08-10T13:46:55.584Z,30.30
2018-08-10T13:49:23.193Z,30.30
2018-08-10T13:51:50.700Z,30.70
2018-08-10T13:54:18.273Z,32.10
2018-08-10T13:56:45.902Z,30.70
2018-08-10T13:59:13.608Z,29.80
2018-08-10T14:01:41.428Z,29.20
2018-08-10T14:04:09.591Z,29.20
2018-08-10T14:06:37.668Z,29.80
2018-08-10T14:09:08.261Z,29.20
2018-08-10T14:11:36.280Z,28.30
2018-08-10T14:14:04.496Z,29.00
2018-08-10T14:16:32.501Z,29.20
2018-08-10T14:19:00.611Z,28.50
2018-08-10T14:21:29.002Z,28.90
2018-08-10T14:23:57.131Z,28.80
2018-08-10T14:26:25.501Z,28.90
2018-08-10T14:28:53.421Z,28.90
2018-08-10T14:31:21.289Z,28.80
2018-08-10T14:33:49.193Z,28.40
2018-08-10T14:36:17.214Z,29.20
2018-08-10T14:38:45.115Z,28.90
2018-08-10T14:41:13.124Z,28.90
2018-08-10T14:43:40.990Z,29.90
2018-08-10T14:46:08.979Z,29.20
2018-08-10T14:48:36.843Z,29.20
2018-08-10T14:51:04.844Z,28.70
2018-08-10T14:53:32.867Z,29.80
2018-08-10T14:56:00.930Z,29.40
2018-08-10T14:58:29.244Z,29.50
2018-08-10T15:00:57.852Z,30.00
2018-08-10T15:03:26.115Z,31.10
2018-08-10T15:05:53.965Z,30.70
2018-08-10T15:08:21.863Z,30.70
2018-08-10T15:10:49.906Z,31.30
2018-08-10T15:13:17.923Z,31.40
2018-08-10T15:15:45.805Z,32.00
2018-08-10T15:18:13.962Z,30.80
2018-08-10T15:20:41.864Z,29.70
2018-08-10T15:23:10.814Z,29.40
2018-08-10T15:25:38.841Z,29.60
2018-08-10T15:28:06.941Z,29.50
2018-08-10T15:30:35.032Z,29.70
2018-08-10T15:33:03.182Z,30.10
2018-08-10T15:35:31.249Z,29.70
2018-08-10T15:37:59.189Z,29.50
2018-08-10T15:40:27.364Z,29.20
2018-08-10T15:42:55.436Z,27.90
2018-08-10T15:45:24.381Z,27.80
2018-08-10T15:47:52.249Z,27.90
2018-08-10T15:50:20.116Z,28.70
2018-08-10T15:52:48.102Z,28.50
2018-08-10T15:55:16.062Z,28.20
2018-08-10T15:57:43.810Z,28.30
2018-08-10T16:00:17.397Z,27.80
2018-08-10T16:02:45.590Z,28.90
2018-08-10T16:05:13.511Z,28.60
2018-08-10T16:07:42.152Z,28.90
2018-08-10T16:10:10.144Z,28.70
2018-08-10T16:12:38.602Z,29.20
2018-08-10T16:15:11.838Z,28.30
2018-08-10T16:17:39.715Z,28.30
2018-08-10T16:20:09.257Z,28.20
2018-08-10T16:22:37.228Z,28.00
2018-08-10T16:25:06.690Z,28.30
2018-08-10T16:27:34.796Z,28.40
2018-08-10T16:30:03.061Z,28.10
2018-08-10T16:32:31.102Z,28.20
2018-08-10T16:34:59.129Z,28.10
2018-08-10T16:37:27.659Z,27.90
2018-08-10T16:39:56.981Z,28.70
2018-08-10T16:42:25.866Z,27.80
2018-08-10T16:44:53.883Z,27.60
2018-08-10T16:47:21.989Z,29.00
2018-08-10T16:49:50.004Z,28.50
2018-08-10T16:52:17.926Z,29.40
2018-08-10T16:54:45.675Z,29.90
2018-08-10T16:57:13.469Z,29.70
2018-08-10T16:59:41.391Z,29.60
2018-08-10T17:02:09.818Z,30.00
2018-08-10T17:04:37.720Z,30.00
2018-08-10T17:07:05.813Z,30.20
2018-08-10T17:09:33.782Z,30.60
2018-08-10T17:12:01.968Z,30.80
2018-08-10T17:14:30.958Z,31.00
2018-08-10T17:16:59.574Z,30.50
2018-08-10T17:19:28.422Z,31.00
2018-08-10T17:21:57.133Z,30.00
2018-08-10T17:24:25.047Z,30.50
2018-08-10T17:26:53.028Z,29.90
2018-08-10T17:29:20.903Z,30.00
2018-08-10T17:31:48.969Z,30.90
2018-08-10T17:34:17.011Z,31.20
2018-08-10T17:36:45.137Z,29.50
2018-08-10T17:39:14.389Z,29.80
2018-08-10T17:41:43.085Z,29.50
2018-08-10T17:44:11.427Z,29.90
2018-08-10T17:46:39.499Z,30.30
2018-08-10T17:49:07.763Z,30.10
2018-08-10T17:51:35.860Z,29.60
2018-08-10T17:54:04.111Z,29.90
2018-08-10T17:56:32.114Z,29.90
2018-08-10T17:59:00.848Z,30.80
2018-08-10T18:01:29.162Z,30.70
2018-08-10T18:03:57.928Z,32.00
2018-08-10T18:06:28.508Z,31.00
2018-08-10T18:08:57.579Z,31.00
2018-08-10T18:11:27.988Z,31.40
2018-08-10T18:13:56.896Z,31.50
2018-08-10T18:16:25.535Z,31.40
2018-08-10T18:18:53.735Z,31.40
2018-08-10T18:21:21.617Z,31.10
2018-08-10T18:23:49.759Z,32.50
2018-08-10T18:26:18.099Z,31.80
2018-08-10T18:28:46.184Z,33.60
2018-08-10T18:31:17.932Z,31.60
2018-08-10T18:33:45.971Z,32.70
2018-08-10T18:36:14.038Z,32.30
2018-08-10T18:38:42.097Z,32.70
2018-08-10T18:41:16.434Z,32.90
2018-08-10T18:43:45.204Z,32.70
2018-08-10T18:46:13.244Z,33.60
2018-08-10T18:48:41.249Z,34.10
2018-08-10T18:51:09.299Z,34.10
2018-08-10T18:53:37.318Z,33.40
2018-08-10T18:56:06.249Z,33.90
2018-08-10T18:58:34.339Z,34.10
2018-08-10T19:01:02.454Z,34.10
2018-08-10T19:03:30.457Z,34.20
2018-08-10T19:06:00.070Z,35.00
2018-08-10T19:08:28.664Z,35.20
2018-08-10T19:10:57.593Z,34.90
2018-08-10T19:13:26.568Z,34.70
2018-08-10T19:15:54.503Z,35.30
2018-08-10T19:18:27.509Z,35.80
2018-08-10T19:21:07.704Z,35.70
2018-08-10T19:23:38.918Z,35.20
2018-08-10T19:26:08.594Z,35.70
2018-08-10T19:28:36.704Z,35.60
2018-08-10T19:31:04.721Z,35.80
2018-08-10T19:33:32.816Z,36.80
2018-08-10T19:36:01.174Z,36.70
2018-08-10T19:38:29.842Z,37.40
2018-08-10T19:40:58.442Z,37.70
2018-08-10T19:43:27.979Z,38.10
2018-08-10T19:45:57.447Z,38.50
2018-08-10T19:48:27.184Z,38.00
2018-08-10T19:50:56.531Z,38.30
2018-08-10T19:53:25.508Z,38.60
2018-08-10T19:55:53.496Z,39.20
2018-08-10T19:58:21.495Z,39.40
2018-08-10T20:00:50.688Z,40.30
2018-08-10T20:03:19.695Z,39.10
2018-08-10T20:05:47.748Z,39.00
2018-08-10T20:08:15.927Z,38.90
2018-08-10T20:10:44.115Z,39.10
2018-08-10T20:13:12.119Z,39.40
2018-08-10T20:15:40.245Z,40.20
2018-08-10T20:18:08.567Z,40.50
2018-08-10T20:20:36.790Z,40.90
2018-08-10T20:23:08.272Z,41.40
2018-08-10T20:25:36.251Z,41.60
2018-08-10T20:28:04.428Z,42.10
2018-08-10T20:30:32.607Z,42.40
2018-08-10T20:33:04.259Z,42.50
2018-08-10T20:35:33.913Z,42.60
2018-08-10T20:38:02.202Z,42.90
2018-08-10T20:40:30.675Z,43.20
2018-08-10T20:42:58.885Z,43.40
2018-08-10T20:45:27.458Z,43.10
2018-08-10T20:47:55.921Z,43.70
2018-08-10T20:50:39.397Z,43.60
2018-08-10T20:53:08.387Z,43.70
2018-08-10T20:55:36.610Z,43.60
2018-08-10T20:58:04.510Z,43.30
2018-08-10T21:03:17.068Z,43.40
2018-08-10T21:05:44.829Z,42.80
2018-08-10T21:08:12.524Z,43.30
2018-08-10T21:10:40.180Z,42.80
2018-08-10T21:13:07.845Z,43.20
2018-08-10T21:15:35.461Z,42.90
2018-08-10T21:18:03.542Z,43.50
2018-08-10T21:20:31.377Z,42.90
2018-08-10T21:22:59.802Z,43.00
2018-08-10T21:25:28.724Z,43.30
2018-08-10T21:27:57.711Z,43.80
2018-08-10T21:30:26.206Z,43.60
2018-08-10T21:32:55.410Z,44.50
2018-08-10T21:35:23.510Z,43.80
2018-08-10T21:37:51.635Z,44.40
2018-08-10T21:40:19.404Z,44.50
2018-08-10T21:42:47.654Z,44.50
2018-08-10T21:45:15.620Z,45.40
2018-08-10T21:47:43.589Z,45.50
2018-08-10T21:50:12.959Z,46.10
2018-08-10T21:52:41.887Z,45.80
2018-08-10T21:55:10.103Z,45.90
2018-08-10T21:57:38.072Z,46.70
2018-08-10T22:00:14.982Z,47.00
2018-08-10T22:02:42.892Z,47.60
2018-08-10T22:05:10.981Z,48.00
2018-08-10T22:07:38.822Z,48.00
2018-08-10T22:10:06.923Z,48.40
2018-08-10T22:12:39.288Z,48.70
2018-08-10T22:15:12.921Z,49.20
2018-08-10T22:17:46.414Z,49.60
2018-08-10T22:20:14.348Z,48.90
2018-08-10T22:22:42.377Z,48.80
2018-08-10T22:25:10.437Z,49.30
2018-08-10T22:27:38.242Z,50.40
2018-08-10T22:30:06.183Z,49.80
2018-08-10T22:32:34.199Z,49.80
2018-08-10T22:35:02.366Z,50.20
2018-08-10T22:37:30.369Z,50.10
2018-08-10T22:39:58.344Z,50.60
2018-08-10T22:42:26.398Z,51.00
2018-08-10T22:44:54.331Z,51.60
2018-08-10T22:47:22.273Z,52.50
2018-08-10T22:49:50.303Z,52.60
2018-08-10T22:52:18.235Z,53.20
2018-08-10T22:54:46.011Z,53.30
2018-08-10T22:57:13.932Z,53.00
2018-08-10T22:59:41.771Z,53.10
2018-08-10T23:02:09.803Z,53.40
2018-08-10T23:04:37.737Z,53.30
2018-08-10T23:07:05.796Z,54.40
2018-08-10T23:09:33.794Z,54.50
2018-08-10T23:12:02.060Z,54.40
2018-08-10T23:14:30.119Z,54.80
2018-08-10T23:16:58.120Z,54.80
2018-08-10T23:19:26.282Z,54.40
2018-08-10T23:21:54.797Z,54.50
2018-08-10T23:24:22.561Z,55.40
2018-08-10T23:26:50.465Z,54.80
2018-08-10T23:29:18.433Z,55.30
2018-08-10T23:31:46.335Z,55.40
2018-08-10T23:34:14.317Z,55.70
2018-08-10T23:36:42.210Z,56.00
2018-08-10T23:39:11.394Z,56.50
2018-08-10T23:41:39.955Z,56.90
2018-08-10T23:44:08.093Z,56.80
2018-08-10T23:46:36.027Z,57.00
2018-08-10T23:49:04.217Z,57.10
2018-08-10T23:51:32.434Z,56.90
2018-08-10T23:54:00.506Z,58.00
2018-08-10T23:56:28.624Z,58.80
2018-08-10T23:58:56.701Z,58.10
